Timeline UpdatesTrip UpdatesNews PostsPvt PostsTravel TipsAdmin PostsConv PostsFollowed PostsChat RequestsBlog PostsPNR Posts

Disclaimer
Search
 
 
Thu Apr 24, 2014 21:48:01 ISTHomeTrainsΣChainsAtlasPNRForumGalleryNewsFAQTripsMembersLoginFeedback
No Recent News for this Train
Other Trains in the News **new
Latest...
⇐ Return Journey: Train# 59814

59813/Kota Agra Yamuna Bridge Passenger (UnReserved)

Jul 04 2013 (4:21PM)
Change Departure Station:
Change Arrival Station:
Post a Train Travel TipPost a Train Travel Tip **new
Post a Comment/Question/Picture/VideoPost a Comment/Question/Picture/Video
Pantry/Catering
✕ NO Pantry Car
✕ NO Catering
RSA - Rake Sharing
Rake/Coach Composition
Loco
WAM - 4
News    PNR    Forum    Time-Table    Availability    Fare Chart    Map    Arr/Dep History    Trips    Gallery    ΣChains    X/O    Timeline    
Travel Time: 0h 19m    1 halts    Distance: 13 km    Avg Speed: 41 km/hr
Type: Passenger
Zone: WR/Western
Departs @ 07:15 (Avg on time)
Platform# 1
SMTWTFS
Kota Junction/KOTA 
Arrives @ 07:34 (Avg 6m late)
Platform# ???
SMTWTFS
Keshorai Patan/KPTN 

1 halts. 4 intermediate Stations between Kota Junction and Keshorai Patan

Show ALL intermediate Stations  Show Old Time-Table

#CodeStation NameX/OArrivesAvgDepartsAvgHaltPFDay#KmSpeedElevZoneAddress
1KOTA»Kota Junction (5)»-07:15+0110.036256mWCRKota, Rajasthan
2GQLGurla  07:24+807:25+81m--15.453251mWCRSH 33, Rajasthan
3KPTN•Keshorai Patan•  07:34+607:35+71m--113.473243mWCRSH 33, Rajasthan
4AREArnethaO  07:44+607:45+61m--124.361239mWCRShreepura, Rajasthan
5KPZKapren  07:54+507:55+51m--133.567234mWCRKota - Lalsot Mega Highway, Rajasthan
6GKBGhataka Varana  08:04+608:05+61m--143.562232mWCRSH 33, Rajasthan
7LBNLaban (2)  08:14+508:15+151m--152.950225mWCRBundi, Rajasthan
8LKELakheri (3)X  08:24+908:25+141m--160.535228mWCRBundi, Rajasthan
9IDGIndargarh Sumerganj Mandi (2)  08:44+1808:45+251m--171.487247mWCRIndargarh, Rajasthan
10AMLIAmli  08:54+2908:55+291m--184.551233mWCRSawai Madhopur, Rajasthan
11RWJRawania DungarXO  09:04+2909:05+291m--192.156266mWCRSawai Madhopur, Rajasthan
12KTAKushtala  09:14+2809:15+291m--1100.612283mWCRNH 116, Rajasthan
13SWMSawai Madhopur Junction (4)  09:50+409:55+55m--1107.768266mWCRSawai Madhopur, Rajasthan
14RNTRanthambhore  10:04+1410:05+141m--1117.961248mWCRMDR 111, Rajasthan
15MXLMokholi  10:14+1210:15+121m--1127.172242mWCRMDR 111, Rajasthan
16MLZMalarnaX  10:24+1310:25+131m--1137.948236mWCRSawai Madhopur, Rajasthan
17NMDNomodaX  10:34+1210:35+131m--1145.041238mWCRMDR 111, Rajasthan
18NNWNarayanpur Tatwara (2)  10:49+1110:50+111m--1154.771256mWCRSawai Madhopur, Rajasthan
19LRULalpur UmriX  10:59+1211:00+141m--1165.315276mWCRSH 1, Rajasthan
20GGCGangapur City (3)  11:25+111:35+110m--1171.664270mWCRGangapur, Rajasthan
21COOChhoti OdaiX  11:47+111:48+21m--1184.353257mWCRSH 25, Rajasthan
22PDZPiliodaX  11:57+411:58+41m--1192.261247mWCRSH 1, Rajasthan
23KNDPKhandipX  12:04-12:05-1m--1198.344245mWCRState Highway 1, Rajasthan
24SMBJShri Mahabirji (3)  12:15+612:16+181m--1205.755240mWCRKarauli, Rajasthan
25SKDMSikroda MinaX  12:22-12:23-1m--1211.222233mWCRSH 22, Rajasthan
26HANHindaun City (2)X  12:36+1012:37+161m21215.963230mWCRKarauli, Rajasthan
27DNHKDhindora Hukmikhera  12:45-12:46-1m--1224.258223mWCRDhindhora, Rajasthan
28FSPFateh Singhpura  12:51+2712:52+281m--1229.138223mWCRState Highway 1, Rajasthan
29DYDumariya (2)XO  13:09+2013:10+531m--1239.78211mWCRState Highway 1, Rajasthan
30BXNBayana Junction (3)XO  14:20+214:50+030m--1248.845198mWCRBayana, Rajasthan
31BAMABirambad (1)  14:56+1414:57+141m11253.240196mNCRDumariya, Rajasthan
32BRBandh Bareta (1)  15:04+1315:05+141m11257.969203mNCRDumariya, Rajasthan
33NGLTNaglatula (1)  15:10+1915:11+191m11263.654209mNCRBayana, Rajasthan
34BIQBansi Paharpur (1)  15:18+1915:19+201m11269.950216mNCRRupbas, Rajasthan
35DXKDhana Kherli (1)X  15:26+1915:27+191m11275.754192mNCRFatehpur Sikri, Uttar Pradesh
36RBSRupbas (2)  15:35+1915:36+331m--1282.946178mNCRJAGNER ROAD, Rajasthan
37AEDAulenda (1)  15:43+3515:44+351m11288.253179mNCRKiraoli, Uttar Pradesh
38FTSFatehpur Sikri (2)  15:54+2615:55+331m--1297.138176mNCRAgra, Uttar Pradesh
39SNPRSingarpur (1)  16:03+4416:04+441m11302.255168mNCRRupbas, Rajasthan
40KLBKiraoli (1)  16:12+4316:13+1:171m11309.554174mNCRKiraoli, Uttar Pradesh
41MIQMirhakur (1)  16:22+1:2016:23+1:171m11317.645172mNCRIdgah Agra, Uttar Pradesh
42PTLIPathauli (1)  16:31+1:1916:32+1:221m11323.638174mNCRAgra Fort, Uttar Pradesh
43IDHIdgah Agra Junction (3)  16:44+4816:45+491m--1331.19168mNCRAgra, Uttar Pradesh
44AFAgra Fort (3)  17:00+2817:10+3010m21333.310170mNCRRakabganj, Uttar Pradesh
45JABYamuna Bridge Agra (3)  17:25+1:40-21335.7-168mNCRAgra, Uttar Pradesh
Scroll to Top
Scroll to Bottom